sensor_id;sensor_type;location;lat;lon;timestamp;temperature;humidity
6496;DHT22;3281;47.658;9.166;2023-03-01T00:01:37;3.30;1.00
6496;DHT22;3281;47.658;9.166;2023-03-01T00:04:04;3.40;1.00
6496;DHT22;3281;47.658;9.166;2023-03-01T00:06:32;3.20;1.00
6496;DHT22;3281;47.658;9.166;2023-03-01T00:08:59;3.30;1.00
6496;DHT22;3281;47.658;9.166;2023-03-01T00:11:26;3.50;1.00
6496;DHT22;3281;47.658;9.166;2023-03-01T00:13:55;3.30;1.00
6496;DHT22;3281;47.658;9.166;2023-03-01T00:16:24;3.40;1.00
6496;DHT22;3281;47.658;9.166;2023-03-01T00:18:51;3.50;1.00
6496;DHT22;3281;47.658;9.166;2023-03-01T00:21:20;3.30;1.00
6496;DHT22;3281;47.658;9.166;2023-03-01T00:23:49;3.40;1.00
6496;DHT22;3281;47.658;9.166;2023-03-01T00:26:17;3.40;1.00
6496;DHT22;3281;47.658;9.166;2023-03-01T00:28:44;3.30;1.00
6496;DHT22;3281;47.658;9.166;2023-03-01T00:31:13;3.40;1.00
6496;DHT22;3281;47.658;9.166;2023-03-01T00:33:41;3.40;1.00
6496;DHT22;3281;47.658;9.166;2023-03-01T00:36:09;3.40;1.00
6496;DHT22;3281;47.658;9.166;2023-03-01T00:38:37;3.50;1.00
6496;DHT22;3281;47.658;9.166;2023-03-01T00:41:06;3.40;1.00
6496;DHT22;3281;47.658;9.166;2023-03-01T00:43:33;3.40;1.00
6496;DHT22;3281;47.658;9.166;2023-03-01T00:46:03;3.50;1.00
6496;DHT22;3281;47.658;9.166;2023-03-01T00:48:30;3.40;1.00
6496;DHT22;3281;47.658;9.166;2023-03-01T00:50:57;3.50;1.00
6496;DHT22;3281;47.658;9.166;2023-03-01T00:53:30;3.50;1.00
6496;DHT22;3281;47.658;9.166;2023-03-01T00:55:57;3.40;1.00
6496;DHT22;3281;47.658;9.166;2023-03-01T00:58:26;3.50;1.00
6496;DHT22;3281;47.658;9.166;2023-03-01T01:00:53;3.60;1.00
6496;DHT22;3281;47.658;9.166;2023-03-01T01:03:20;3.60;1.00
6496;DHT22;3281;47.658;9.166;2023-03-01T01:05:47;3.60;1.00
6496;DHT22;3281;47.658;9.166;2023-03-01T01:08:13;3.50;1.00
6496;DHT22;3281;47.658;9.166;2023-03-01T01:10:40;3.50;1.00
6496;DHT22;3281;47.658;9.166;2023-03-01T01:13:09;3.40;1.00
6496;DHT22;3281;47.658;9.166;2023-03-01T01:15:37;3.50;1.00
6496;DHT22;3281;47.658;9.166;2023-03-01T01:18:04;3.60;1.00
6496;DHT22;3281;47.658;9.166;2023-03-01T01:20:31;3.50;1.00
6496;DHT22;3281;47.658;9.166;2023-03-01T01:22:58;3.50;1.00
6496;DHT22;3281;47.658;9.166;2023-03-01T01:25:24;3.50;1.00
6496;DHT22;3281;47.658;9.166;2023-03-01T01:27:51;3.40;1.00
6496;DHT22;3281;47.658;9.166;2023-03-01T01:30:18;3.50;1.00
6496;DHT22;3281;47.658;9.166;2023-03-01T01:32:46;3.50;1.00
6496;DHT22;3281;47.658;9.166;2023-03-01T01:35:13;3.40;1.00
6496;DHT22;3281;47.658;9.166;2023-03-01T01:37:39;3.50;1.00
6496;DHT22;3281;47.658;9.166;2023-03-01T01:40:09;3.50;1.00
6496;DHT22;3281;47.658;9.166;2023-03-01T01:42:36;3.50;1.00
6496;DHT22;3281;47.658;9.166;2023-03-01T01:45:26;3.50;1.00
6496;DHT22;3281;47.658;9.166;2023-03-01T01:47:57;3.40;1.00
6496;DHT22;3281;47.658;9.166;2023-03-01T01:50:25;3.40;1.00
6496;DHT22;3281;47.658;9.166;2023-03-01T01:52:58;3.40;1.00
6496;DHT22;3281;47.658;9.166;2023-03-01T01:55:27;3.40;1.00
6496;DHT22;3281;47.658;9.166;2023-03-01T01:57:57;3.50;1.00
6496;DHT22;3281;47.658;9.166;2023-03-01T02:00:27;3.50;1.00
6496;DHT22;3281;47.658;9.166;2023-03-01T02:02:58;3.60;1.00
6496;DHT22;3281;47.658;9.166;2023-03-01T02:05:31;3.50;1.00
6496;DHT22;3281;47.658;9.166;2023-03-01T02:07:59;3.50;1.00
6496;DHT22;3281;47.658;9.166;2023-03-01T02:10:27;3.40;1.00
6496;DHT22;3281;47.658;9.166;2023-03-01T02:12:55;3.60;1.00
6496;DHT22;3281;47.658;9.166;2023-03-01T02:15:22;3.50;1.00
6496;DHT22;3281;47.658;9.166;2023-03-01T02:17:49;3.60;1.00
6496;DHT22;3281;47.658;9.166;2023-03-01T02:20:25;3.50;1.00
6496;DHT22;3281;47.658;9.166;2023-03-01T02:22:53;3.40;1.00
6496;DHT22;3281;47.658;9.166;2023-03-01T02:25:27;3.60;1.00
6496;DHT22;3281;47.658;9.166;2023-03-01T02:27:58;3.70;1.00
6496;DHT22;3281;47.658;9.166;2023-03-01T02:30:27;3.60;1.00
6496;DHT22;3281;47.658;9.166;2023-03-01T02:32:56;3.60;1.00
6496;DHT22;3281;47.658;9.166;2023-03-01T02:35:29;3.60;1.00
6496;DHT22;3281;47.658;9.166;2023-03-01T02:37:57;3.50;1.00
6496;DHT22;3281;47.658;9.166;2023-03-01T02:40:27;3.50;1.00
6496;DHT22;3281;47.658;9.166;2023-03-01T02:42:57;3.60;1.00
6496;DHT22;3281;47.658;9.166;2023-03-01T02:45:25;3.50;1.00
6496;DHT22;3281;47.658;9.166;2023-03-01T02:47:55;3.60;1.00
6496;DHT22;3281;47.658;9.166;2023-03-01T02:50:44;3.50;1.00
6496;DHT22;3281;47.658;9.166;2023-03-01T02:53:15;3.50;1.00
6496;DHT22;3281;47.658;9.166;2023-03-01T02:55:43;3.60;1.00
6496;DHT22;3281;47.658;9.166;2023-03-01T02:58:10;3.50;1.00
6496;DHT22;3281;47.658;9.166;2023-03-01T03:00:39;3.60;1.00
6496;DHT22;3281;47.658;9.166;2023-03-01T03:03:13;3.60;1.00
6496;DHT22;3281;47.658;9.166;2023-03-01T03:05:41;3.60;1.00
6496;DHT22;3281;47.658;9.166;2023-03-01T03:08:08;3.50;1.00
6496;DHT22;3281;47.658;9.166;2023-03-01T03:10:36;3.50;1.00
6496;DHT22;3281;47.658;9.166;2023-03-01T03:13:05;3.40;1.00
6496;DHT22;3281;47.658;9.166;2023-03-01T03:15:33;3.50;1.00
6496;DHT22;3281;47.658;9.166;2023-03-01T03:18:03;3.60;1.00
6496;DHT22;3281;47.658;9.166;2023-03-01T03:20:31;3.60;1.00
6496;DHT22;3281;47.658;9.166;2023-03-01T03:22:58;3.50;1.00
6496;DHT22;3281;47.658;9.166;2023-03-01T03:25:26;3.50;1.00
6496;DHT22;3281;47.658;9.166;2023-03-01T03:27:53;3.40;1.00
6496;DHT22;3281;47.658;9.166;2023-03-01T03:30:23;3.30;1.00
6496;DHT22;3281;47.658;9.166;2023-03-01T03:32:50;3.50;1.00
6496;DHT22;3281;47.658;9.166;2023-03-01T03:35:19;3.60;1.00
6496;DHT22;3281;47.658;9.166;2023-03-01T03:37:48;3.50;1.00
6496;DHT22;3281;47.658;9.166;2023-03-01T03:40:33;3.50;1.00
6496;DHT22;3281;47.658;9.166;2023-03-01T03:43:00;3.50;1.00
6496;DHT22;3281;47.658;9.166;2023-03-01T03:45:27;3.50;1.00
6496;DHT22;3281;47.658;9.166;2023-03-01T03:47:53;3.50;1.00
6496;DHT22;3281;47.658;9.166;2023-03-01T03:50:20;3.50;1.00
6496;DHT22;3281;47.658;9.166;2023-03-01T03:52:48;3.40;1.00
6496;DHT22;3281;47.658;9.166;2023-03-01T03:55:15;3.40;1.00
6496;DHT22;3281;47.658;9.166;2023-03-01T03:57:45;3.40;1.00
6496;DHT22;3281;47.658;9.166;2023-03-01T04:00:18;3.40;1.00
6496;DHT22;3281;47.658;9.166;2023-03-01T04:02:46;3.30;1.00
6496;DHT22;3281;47.658;9.166;2023-03-01T04:05:15;3.40;1.00
6496;DHT22;3281;47.658;9.166;2023-03-01T04:07:42;3.30;1.00
6496;DHT22;3281;47.658;9.166;2023-03-01T04:10:12;3.30;1.00
6496;DHT22;3281;47.658;9.166;2023-03-01T04:12:39;3.30;1.00
6496;DHT22;3281;47.658;9.166;2023-03-01T04:15:10;3.30;1.00
6496;DHT22;3281;47.658;9.166;2023-03-01T04:17:39;3.30;1.00
6496;DHT22;3281;47.658;9.166;2023-03-01T04:20:08;3.40;1.00
6496;DHT22;3281;47.658;9.166;2023-03-01T04:22:36;3.30;1.00
6496;DHT22;3281;47.658;9.166;2023-03-01T04:25:03;3.30;1.00
6496;DHT22;3281;47.658;9.166;2023-03-01T04:27:33;3.30;1.00
6496;DHT22;3281;47.658;9.166;2023-03-01T04:29:59;3.40;1.00
6496;DHT22;3281;47.658;9.166;2023-03-01T04:32:26;3.30;1.00
6496;DHT22;3281;47.658;9.166;2023-03-01T04:34:53;3.30;1.00
6496;DHT22;3281;47.658;9.166;2023-03-01T04:37:19;3.30;1.00
6496;DHT22;3281;47.658;9.166;2023-03-01T04:39:46;3.30;1.00
6496;DHT22;3281;47.658;9.166;2023-03-01T04:42:13;3.30;1.00
6496;DHT22;3281;47.658;9.166;2023-03-01T04:44:41;3.40;1.00
6496;DHT22;3281;47.658;9.166;2023-03-01T04:47:08;3.40;1.00
6496;DHT22;3281;47.658;9.166;2023-03-01T04:49:35;3.40;1.00
6496;DHT22;3281;47.658;9.166;2023-03-01T04:52:01;3.40;1.00
6496;DHT22;3281;47.658;9.166;2023-03-01T04:54:28;3.50;1.00
6496;DHT22;3281;47.658;9.166;2023-03-01T04:56:55;3.40;1.00
6496;DHT22;3281;47.658;9.166;2023-03-01T04:59:22;3.40;1.00
6496;DHT22;3281;47.658;9.166;2023-03-01T05:01:50;3.50;1.00
6496;DHT22;3281;47.658;9.166;2023-03-01T05:04:17;3.50;1.00
6496;DHT22;3281;47.658;9.166;2023-03-01T05:06:44;3.50;1.00
6496;DHT22;3281;47.658;9.166;2023-03-01T05:09:10;3.50;1.00
6496;DHT22;3281;47.658;9.166;2023-03-01T05:11:37;3.40;1.00
6496;DHT22;3281;47.658;9.166;2023-03-01T05:14:05;3.30;1.00
6496;DHT22;3281;47.658;9.166;2023-03-01T05:16:33;3.30;1.00
6496;DHT22;3281;47.658;9.166;2023-03-01T05:19:03;3.40;1.00
6496;DHT22;3281;47.658;9.166;2023-03-01T05:21:36;3.40;1.00
6496;DHT22;3281;47.658;9.166;2023-03-01T05:24:24;3.40;1.00
6496;DHT22;3281;47.658;9.166;2023-03-01T05:26:51;3.40;1.00
6496;DHT22;3281;47.658;9.166;2023-03-01T05:29:18;3.40;1.00
6496;DHT22;3281;47.658;9.166;2023-03-01T05:31:50;3.30;1.00
6496;DHT22;3281;47.658;9.166;2023-03-01T05:34:19;3.30;1.00
6496;DHT22;3281;47.658;9.166;2023-03-01T05:36:48;3.30;1.00
6496;DHT22;3281;47.658;9.166;2023-03-01T05:39:16;3.40;1.00
6496;DHT22;3281;47.658;9.166;2023-03-01T05:41:43;3.50;1.00
6496;DHT22;3281;47.658;9.166;2023-03-01T05:44:09;3.60;1.00
6496;DHT22;3281;47.658;9.166;2023-03-01T05:46:37;3.50;1.00
6496;DHT22;3281;47.658;9.166;2023-03-01T05:49:04;3.40;1.00
6496;DHT22;3281;47.658;9.166;2023-03-01T05:51:32;3.40;1.00
6496;DHT22;3281;47.658;9.166;2023-03-01T05:54:00;3.40;1.00
6496;DHT22;3281;47.658;9.166;2023-03-01T05:56:26;3.30;1.00
6496;DHT22;3281;47.658;9.166;2023-03-01T05:58:53;3.30;1.00
6496;DHT22;3281;47.658;9.166;2023-03-01T06:01:20;3.40;1.00
6496;DHT22;3281;47.658;9.166;2023-03-01T06:03:47;3.30;1.00
6496;DHT22;3281;47.658;9.166;2023-03-01T06:06:13;3.40;1.00
6496;DHT22;3281;47.658;9.166;2023-03-01T06:08:41;3.40;1.00
6496;DHT22;3281;47.658;9.166;2023-03-01T06:11:08;3.30;1.00
6496;DHT22;3281;47.658;9.166;2023-03-01T06:13:35;3.30;1.00
6496;DHT22;3281;47.658;9.166;2023-03-01T06:16:04;3.30;1.00
6496;DHT22;3281;47.658;9.166;2023-03-01T06:18:31;3.30;1.00
6496;DHT22;3281;47.658;9.166;2023-03-01T06:20:58;3.30;1.00
6496;DHT22;3281;47.658;9.166;2023-03-01T06:23:25;3.30;1.00
6496;DHT22;3281;47.658;9.166;2023-03-01T06:25:53;3.40;1.00
6496;DHT22;3281;47.658;9.166;2023-03-01T06:28:20;3.40;1.00
6496;DHT22;3281;47.658;9.166;2023-03-01T06:30:47;3.40;1.00
6496;DHT22;3281;47.658;9.166;2023-03-01T06:33:14;3.30;1.00
6496;DHT22;3281;47.658;9.166;2023-03-01T06:35:41;3.20;1.00
6496;DHT22;3281;47.658;9.166;2023-03-01T06:38:07;3.20;1.00
6496;DHT22;3281;47.658;9.166;2023-03-01T06:40:34;3.30;1.00
6496;DHT22;3281;47.658;9.166;2023-03-01T06:43:03;3.30;1.00
6496;DHT22;3281;47.658;9.166;2023-03-01T06:45:29;3.40;1.00
6496;DHT22;3281;47.658;9.166;2023-03-01T06:48:02;3.40;1.00
6496;DHT22;3281;47.658;9.166;2023-03-01T06:50:29;3.40;1.00
6496;DHT22;3281;47.658;9.166;2023-03-01T06:52:57;3.30;1.00
6496;DHT22;3281;47.658;9.166;2023-03-01T06:55:24;3.30;1.00
6496;DHT22;3281;47.658;9.166;2023-03-01T06:57:54;3.30;1.00
6496;DHT22;3281;47.658;9.166;2023-03-01T07:00:24;3.40;1.00
6496;DHT22;3281;47.658;9.166;2023-03-01T07:02:53;3.30;1.00
6496;DHT22;3281;47.658;9.166;2023-03-01T07:05:19;3.40;1.00
6496;DHT22;3281;47.658;9.166;2023-03-01T07:07:46;3.40;1.00
6496;DHT22;3281;47.658;9.166;2023-03-01T07:10:13;3.30;1.00
6496;DHT22;3281;47.658;9.166;2023-03-01T07:12:40;3.30;1.00
6496;DHT22;3281;47.658;9.166;2023-03-01T07:15:09;3.40;1.00
6496;DHT22;3281;47.658;9.166;2023-03-01T07:17:37;3.30;1.00
6496;DHT22;3281;47.658;9.166;2023-03-01T07:20:05;3.40;1.00
6496;DHT22;3281;47.658;9.166;2023-03-01T07:22:31;3.50;1.00
6496;DHT22;3281;47.658;9.166;2023-03-01T07:24:58;3.50;1.00
6496;DHT22;3281;47.658;9.166;2023-03-01T07:27:25;3.50;1.00
6496;DHT22;3281;47.658;9.166;2023-03-01T07:29:52;3.60;1.00
6496;DHT22;3281;47.658;9.166;2023-03-01T07:32:18;3.40;1.00
6496;DHT22;3281;47.658;9.166;2023-03-01T07:34:46;3.40;1.00
6496;DHT22;3281;47.658;9.166;2023-03-01T07:37:13;3.50;1.00
6496;DHT22;3281;47.658;9.166;2023-03-01T07:39:40;3.50;1.00
6496;DHT22;3281;47.658;9.166;2023-03-01T07:42:07;3.60;1.00
6496;DHT22;3281;47.658;9.166;2023-03-01T07:44:34;3.60;1.00
6496;DHT22;3281;47.658;9.166;2023-03-01T07:47:01;3.60;1.00
6496;DHT22;3281;47.658;9.166;2023-03-01T07:49:27;3.50;1.00
6496;DHT22;3281;47.658;9.166;2023-03-01T07:51:56;3.60;1.00
6496;DHT22;3281;47.658;9.166;2023-03-01T07:54:22;3.60;1.00
6496;DHT22;3281;47.658;9.166;2023-03-01T07:56:50;3.60;1.00
6496;DHT22;3281;47.658;9.166;2023-03-01T07:59:17;3.60;1.00
6496;DHT22;3281;47.658;9.166;2023-03-01T08:01:44;3.60;1.00
6496;DHT22;3281;47.658;9.166;2023-03-01T08:04:10;3.70;1.00
6496;DHT22;3281;47.658;9.166;2023-03-01T08:06:39;3.60;1.00
6496;DHT22;3281;47.658;9.166;2023-03-01T08:09:07;3.70;1.00
6496;DHT22;3281;47.658;9.166;2023-03-01T08:11:34;3.70;1.00
6496;DHT22;3281;47.658;9.166;2023-03-01T08:14:01;3.70;1.00
6496;DHT22;3281;47.658;9.166;2023-03-01T08:16:28;3.80;1.00
6496;DHT22;3281;47.658;9.166;2023-03-01T08:18:55;3.70;1.00
6496;DHT22;3281;47.658;9.166;2023-03-01T08:21:26;3.80;1.00
6496;DHT22;3281;47.658;9.166;2023-03-01T08:23:52;3.80;1.00
6496;DHT22;3281;47.658;9.166;2023-03-01T08:26:21;3.90;1.00
6496;DHT22;3281;47.658;9.166;2023-03-01T08:28:49;4.00;1.00
6496;DHT22;3281;47.658;9.166;2023-03-01T08:31:18;3.90;1.00
6496;DHT22;3281;47.658;9.166;2023-03-01T08:33:46;3.80;1.00
6496;DHT22;3281;47.658;9.166;2023-03-01T08:36:16;3.90;1.00
6496;DHT22;3281;47.658;9.166;2023-03-01T08:38:43;3.90;1.00
6496;DHT22;3281;47.658;9.166;2023-03-01T08:41:11;3.80;1.00
6496;DHT22;3281;47.658;9.166;2023-03-01T08:43:39;3.90;1.00
6496;DHT22;3281;47.658;9.166;2023-03-01T08:46:06;3.80;1.00
6496;DHT22;3281;47.658;9.166;2023-03-01T08:48:33;3.90;1.00
6496;DHT22;3281;47.658;9.166;2023-03-01T08:51:07;4.00;1.00
6496;DHT22;3281;47.658;9.166;2023-03-01T08:53:34;4.10;1.00
6496;DHT22;3281;47.658;9.166;2023-03-01T08:56:01;4.10;1.00
6496;DHT22;3281;47.658;9.166;2023-03-01T08:58:28;4.20;1.00
6496;DHT22;3281;47.658;9.166;2023-03-01T09:00:57;3.90;1.00
6496;DHT22;3281;47.658;9.166;2023-03-01T09:03:24;3.90;1.00
6496;DHT22;3281;47.658;9.166;2023-03-01T09:05:51;4.00;1.00
6496;DHT22;3281;47.658;9.166;2023-03-01T09:08:18;3.80;1.00
6496;DHT22;3281;47.658;9.166;2023-03-01T09:10:45;3.90;1.00
6496;DHT22;3281;47.658;9.166;2023-03-01T09:13:12;3.90;1.00
6496;DHT22;3281;47.658;9.166;2023-03-01T09:15:39;3.90;1.00
6496;DHT22;3281;47.658;9.166;2023-03-01T09:18:07;3.90;1.00
6496;DHT22;3281;47.658;9.166;2023-03-01T09:20:34;4.10;1.00
6496;DHT22;3281;47.658;9.166;2023-03-01T09:23:01;4.20;1.00
6496;DHT22;3281;47.658;9.166;2023-03-01T09:25:28;4.30;1.00
6496;DHT22;3281;47.658;9.166;2023-03-01T09:27:55;4.20;1.00
6496;DHT22;3281;47.658;9.166;2023-03-01T09:30:21;4.00;1.00
6496;DHT22;3281;47.658;9.166;2023-03-01T09:32:49;4.00;1.00
6496;DHT22;3281;47.658;9.166;2023-03-01T09:35:17;4.00;1.00
6496;DHT22;3281;47.658;9.166;2023-03-01T09:37:45;4.00;1.00
6496;DHT22;3281;47.658;9.166;2023-03-01T09:40:14;4.20;1.00
6496;DHT22;3281;47.658;9.166;2023-03-01T09:42:50;4.20;1.00
6496;DHT22;3281;47.658;9.166;2023-03-01T09:45:26;4.20;1.00
6496;DHT22;3281;47.658;9.166;2023-03-01T09:47:54;4.10;1.00
6496;DHT22;3281;47.658;9.166;2023-03-01T09:50:23;4.10;1.00
6496;DHT22;3281;47.658;9.166;2023-03-01T09:52:58;4.00;1.00
6496;DHT22;3281;47.658;9.166;2023-03-01T09:55:31;4.20;1.00
6496;DHT22;3281;47.658;9.166;2023-03-01T09:58:00;4.20;1.00
6496;DHT22;3281;47.658;9.166;2023-03-01T10:00:36;4.10;1.00
6496;DHT22;3281;47.658;9.166;2023-03-01T10:03:13;4.00;1.00
6496;DHT22;3281;47.658;9.166;2023-03-01T10:05:55;4.10;1.00
6496;DHT22;3281;47.658;9.166;2023-03-01T10:08:34;4.10;1.00
6496;DHT22;3281;47.658;9.166;2023-03-01T10:11:04;4.20;1.00
6496;DHT22;3281;47.658;9.166;2023-03-01T10:13:37;4.10;1.00
6496;DHT22;3281;47.658;9.166;2023-03-01T10:16:12;4.20;1.00
6496;DHT22;3281;47.658;9.166;2023-03-01T10:18:41;4.40;1.00
6496;DHT22;3281;47.658;9.166;2023-03-01T10:21:14;4.30;1.00
6496;DHT22;3281;47.658;9.166;2023-03-01T10:23:42;4.30;1.00
6496;DHT22;3281;47.658;9.166;2023-03-01T10:26:21;4.50;1.00
6496;DHT22;3281;47.658;9.166;2023-03-01T10:28:58;4.40;1.00
6496;DHT22;3281;47.658;9.166;2023-03-01T10:31:27;4.30;1.00
6496;DHT22;3281;47.658;9.166;2023-03-01T10:34:02;4.40;1.00
6496;DHT22;3281;47.658;9.166;2023-03-01T10:36:33;4.30;1.00
6496;DHT22;3281;47.658;9.166;2023-03-01T10:39:11;4.30;1.00
6496;DHT22;3281;47.658;9.166;2023-03-01T10:41:55;4.40;1.00
6496;DHT22;3281;47.658;9.166;2023-03-01T10:44:43;4.40;1.00
6496;DHT22;3281;47.658;9.166;2023-03-01T10:47:16;4.30;1.00
6496;DHT22;3281;47.658;9.166;2023-03-01T10:49:55;4.40;1.00
6496;DHT22;3281;47.658;9.166;2023-03-01T10:52:33;4.40;1.00
6496;DHT22;3281;47.658;9.166;2023-03-01T10:55:02;4.30;1.00
6496;DHT22;3281;47.658;9.166;2023-03-01T10:57:35;4.50;1.00
6496;DHT22;3281;47.658;9.166;2023-03-01T11:00:21;4.50;1.00
6496;DHT22;3281;47.658;9.166;2023-03-01T11:02:50;4.60;1.00
6496;DHT22;3281;47.658;9.166;2023-03-01T11:05:21;4.50;1.00
6496;DHT22;3281;47.658;9.166;2023-03-01T11:07:52;4.40;1.00
6496;DHT22;3281;47.658;9.166;2023-03-01T11:10:22;4.40;1.00
6496;DHT22;3281;47.658;9.166;2023-03-01T11:12:50;4.40;1.00
6496;DHT22;3281;47.658;9.166;2023-03-01T11:15:23;4.40;1.00
6496;DHT22;3281;47.658;9.166;2023-03-01T11:17:50;4.40;1.00
6496;DHT22;3281;47.658;9.166;2023-03-01T11:20:30;4.50;1.00
6496;DHT22;3281;47.658;9.166;2023-03-01T11:23:01;4.50;1.00
6496;DHT22;3281;47.658;9.166;2023-03-01T11:25:32;4.60;1.00
6496;DHT22;3281;47.658;9.166;2023-03-01T11:28:03;4.40;1.00
6496;DHT22;3281;47.658;9.166;2023-03-01T11:30:34;4.40;1.00
6496;DHT22;3281;47.658;9.166;2023-03-01T11:33:17;4.40;1.00
6496;DHT22;3281;47.658;9.166;2023-03-01T11:35:50;4.30;1.00
6496;DHT22;3281;47.658;9.166;2023-03-01T11:38:24;4.30;1.00
6496;DHT22;3281;47.658;9.166;2023-03-01T11:40:55;4.40;1.00
6496;DHT22;3281;47.658;9.166;2023-03-01T11:43:32;4.40;1.00
6496;DHT22;3281;47.658;9.166;2023-03-01T11:46:32;4.50;1.00
6496;DHT22;3281;47.658;9.166;2023-03-01T11:49:13;4.70;1.00
6496;DHT22;3281;47.658;9.166;2023-03-01T11:51:48;4.70;1.00
6496;DHT22;3281;47.658;9.166;2023-03-01T11:54:30;4.70;1.00
6496;DHT22;3281;47.658;9.166;2023-03-01T11:57:02;4.80;1.00
6496;DHT22;3281;47.658;9.166;2023-03-01T11:59:58;4.90;1.00
6496;DHT22;3281;47.658;9.166;2023-03-01T12:02:45;4.60;1.00
6496;DHT22;3281;47.658;9.166;2023-03-01T12:08:24;4.50;1.00
6496;DHT22;3281;47.658;9.166;2023-03-01T12:10:59;4.50;1.00
6496;DHT22;3281;47.658;9.166;2023-03-01T12:13:54;4.50;1.00
6496;DHT22;3281;47.658;9.166;2023-03-01T12:16:32;4.40;1.00
6496;DHT22;3281;47.658;9.166;2023-03-01T12:19:29;4.50;1.00
6496;DHT22;3281;47.658;9.166;2023-03-01T12:22:12;4.50;1.00
6496;DHT22;3281;47.658;9.166;2023-03-01T12:33:59;4.60;1.00
6496;DHT22;3281;47.658;9.166;2023-03-01T12:36:42;4.70;1.00
6496;DHT22;3281;47.658;9.166;2023-03-01T12:39:22;4.70;1.00
6496;DHT22;3281;47.658;9.166;2023-03-01T12:41:58;4.60;1.00
6496;DHT22;3281;47.658;9.166;2023-03-01T12:44:39;4.60;1.00
6496;DHT22;3281;47.658;9.166;2023-03-01T12:47:23;4.70;1.00
6496;DHT22;3281;47.658;9.166;2023-03-01T12:49:55;4.80;1.00
6496;DHT22;3281;47.658;9.166;2023-03-01T12:52:37;4.80;1.00
6496;DHT22;3281;47.658;9.166;2023-03-01T12:55:18;4.60;1.00
6496;DHT22;3281;47.658;9.166;2023-03-01T12:57:50;4.70;1.00
6496;DHT22;3281;47.658;9.166;2023-03-01T13:00:28;4.90;1.00
6496;DHT22;3281;47.658;9.166;2023-03-01T13:03:09;4.90;1.00
6496;DHT22;3281;47.658;9.166;2023-03-01T13:05:42;5.00;1.00
6496;DHT22;3281;47.658;9.166;2023-03-01T13:08:16;4.90;1.00
6496;DHT22;3281;47.658;9.166;2023-03-01T13:10:48;5.00;1.00
6496;DHT22;3281;47.658;9.166;2023-03-01T13:13:21;5.10;1.00
6496;DHT22;3281;47.658;9.166;2023-03-01T13:15:49;5.10;1.00
6496;DHT22;3281;47.658;9.166;2023-03-01T13:18:32;5.20;1.00
6496;DHT22;3281;47.658;9.166;2023-03-01T13:21:01;4.90;1.00
6496;DHT22;3281;47.658;9.166;2023-03-01T13:23:31;5.00;1.00
6496;DHT22;3281;47.658;9.166;2023-03-01T13:26:11;5.00;1.00
6496;DHT22;3281;47.658;9.166;2023-03-01T13:28:46;5.00;1.00
6496;DHT22;3281;47.658;9.166;2023-03-01T13:34:47;4.90;1.00
6496;DHT22;3281;47.658;9.166;2023-03-01T13:37:33;4.90;1.00
6496;DHT22;3281;47.658;9.166;2023-03-01T13:40:04;5.00;1.00
6496;DHT22;3281;47.658;9.166;2023-03-01T13:42:35;5.20;1.00
6496;DHT22;3281;47.658;9.166;2023-03-01T13:45:05;5.10;1.00
6496;DHT22;3281;47.658;9.166;2023-03-01T13:47:42;4.80;1.00
6496;DHT22;3281;47.658;9.166;2023-03-01T13:50:19;4.90;1.00
6496;DHT22;3281;47.658;9.166;2023-03-01T13:52:50;5.10;1.00
6496;DHT22;3281;47.658;9.166;2023-03-01T13:55:21;5.00;1.00
6496;DHT22;3281;47.658;9.166;2023-03-01T13:57:51;5.10;1.00
6496;DHT22;3281;47.658;9.166;2023-03-01T14:00:27;5.00;1.00
6496;DHT22;3281;47.658;9.166;2023-03-01T14:03:08;4.90;1.00
6496;DHT22;3281;47.658;9.166;2023-03-01T14:05:38;5.10;1.00
6496;DHT22;3281;47.658;9.166;2023-03-01T14:08:13;5.20;1.00
6496;DHT22;3281;47.658;9.166;2023-03-01T14:13:46;5.10;1.00
6496;DHT22;3281;47.658;9.166;2023-03-01T14:16:24;5.30;1.00
6496;DHT22;3281;47.658;9.166;2023-03-01T14:19:01;5.10;1.00
6496;DHT22;3281;47.658;9.166;2023-03-01T14:21:32;5.00;1.00
6496;DHT22;3281;47.658;9.166;2023-03-01T14:23:58;4.90;1.00
6496;DHT22;3281;47.658;9.166;2023-03-01T14:26:26;4.80;1.00
6496;DHT22;3281;47.658;9.166;2023-03-01T14:28:52;4.90;1.00
6496;DHT22;3281;47.658;9.166;2023-03-01T14:31:35;4.90;1.00
6496;DHT22;3281;47.658;9.166;2023-03-01T14:34:03;4.90;1.00
6496;DHT22;3281;47.658;9.166;2023-03-01T14:36:33;4.90;1.00
6496;DHT22;3281;47.658;9.166;2023-03-01T14:39:01;5.10;1.00
6496;DHT22;3281;47.658;9.166;2023-03-01T14:41:33;5.10;1.00
6496;DHT22;3281;47.658;9.166;2023-03-01T14:44:03;5.00;1.00
6496;DHT22;3281;47.658;9.166;2023-03-01T14:46:34;5.00;1.00
6496;DHT22;3281;47.658;9.166;2023-03-01T14:49:04;5.10;1.00
6496;DHT22;3281;47.658;9.166;2023-03-01T14:51:36;5.10;1.00
6496;DHT22;3281;47.658;9.166;2023-03-01T14:54:10;4.90;1.00
6496;DHT22;3281;47.658;9.166;2023-03-01T14:56:45;5.00;1.00
6496;DHT22;3281;47.658;9.166;2023-03-01T14:59:12;5.00;1.00
6496;DHT22;3281;47.658;9.166;2023-03-01T15:01:40;4.80;1.00
6496;DHT22;3281;47.658;9.166;2023-03-01T15:04:12;4.90;1.00
6496;DHT22;3281;47.658;9.166;2023-03-01T15:06:41;4.80;1.00
6496;DHT22;3281;47.658;9.166;2023-03-01T15:09:14;5.00;1.00
6496;DHT22;3281;47.658;9.166;2023-03-01T15:11:42;5.00;1.00
6496;DHT22;3281;47.658;9.166;2023-03-01T15:14:27;5.00;1.00
6496;DHT22;3281;47.658;9.166;2023-03-01T15:16:54;5.00;1.00
6496;DHT22;3281;47.658;9.166;2023-03-01T15:19:23;4.90;1.00
6496;DHT22;3281;47.658;9.166;2023-03-01T15:21:56;4.90;1.00
6496;DHT22;3281;47.658;9.166;2023-03-01T15:24:25;4.80;1.00
6496;DHT22;3281;47.658;9.166;2023-03-01T15:26:55;4.80;1.00
6496;DHT22;3281;47.658;9.166;2023-03-01T15:29:24;4.80;1.00
6496;DHT22;3281;47.658;9.166;2023-03-01T15:31:57;5.00;1.00
6496;DHT22;3281;47.658;9.166;2023-03-01T15:34:26;5.10;1.00
6496;DHT22;3281;47.658;9.166;2023-03-01T15:36:56;5.00;1.00
6496;DHT22;3281;47.658;9.166;2023-03-01T15:39:35;4.90;1.00
6496;DHT22;3281;47.658;9.166;2023-03-01T15:42:05;4.90;1.00
6496;DHT22;3281;47.658;9.166;2023-03-01T15:44:33;5.00;1.00
6496;DHT22;3281;47.658;9.166;2023-03-01T15:47:01;5.10;1.00
6496;DHT22;3281;47.658;9.166;2023-03-01T15:49:36;5.20;1.00
6496;DHT22;3281;47.658;9.166;2023-03-01T15:52:06;5.20;1.00
6496;DHT22;3281;47.658;9.166;2023-03-01T15:54:39;5.20;1.00
6496;DHT22;3281;47.658;9.166;2023-03-01T15:57:10;5.10;1.00
6496;DHT22;3281;47.658;9.166;2023-03-01T15:59:39;5.10;1.00
6496;DHT22;3281;47.658;9.166;2023-03-01T16:02:09;5.10;1.00
6496;DHT22;3281;47.658;9.166;2023-03-01T16:04:35;5.10;1.00
6496;DHT22;3281;47.658;9.166;2023-03-01T16:07:02;5.00;1.00
6496;DHT22;3281;47.658;9.166;2023-03-01T16:09:30;5.10;1.00
6496;DHT22;3281;47.658;9.166;2023-03-01T16:11:57;5.00;1.00
6496;DHT22;3281;47.658;9.166;2023-03-01T16:14:24;4.90;1.00
6496;DHT22;3281;47.658;9.166;2023-03-01T16:16:51;4.80;1.00
6496;DHT22;3281;47.658;9.166;2023-03-01T16:19:17;4.80;1.00
6496;DHT22;3281;47.658;9.166;2023-03-01T16:21:44;4.90;1.00
6496;DHT22;3281;47.658;9.166;2023-03-01T16:24:12;4.90;1.00
6496;DHT22;3281;47.658;9.166;2023-03-01T16:26:40;4.90;1.00
6496;DHT22;3281;47.658;9.166;2023-03-01T16:29:07;4.80;1.00
6496;DHT22;3281;47.658;9.166;2023-03-01T16:31:34;4.90;1.00
6496;DHT22;3281;47.658;9.166;2023-03-01T16:34:00;4.70;1.00
6496;DHT22;3281;47.658;9.166;2023-03-01T16:36:28;4.60;1.00
6496;DHT22;3281;47.658;9.166;2023-03-01T16:38:55;4.50;1.00
6496;DHT22;3281;47.658;9.166;2023-03-01T16:41:24;4.60;1.00
6496;DHT22;3281;47.658;9.166;2023-03-01T16:43:52;4.40;1.00
6496;DHT22;3281;47.658;9.166;2023-03-01T16:46:21;4.40;1.00
6496;DHT22;3281;47.658;9.166;2023-03-01T16:48:49;4.40;1.00
6496;DHT22;3281;47.658;9.166;2023-03-01T16:51:16;4.30;1.00
6496;DHT22;3281;47.658;9.166;2023-03-01T16:53:43;4.30;1.00
6496;DHT22;3281;47.658;9.166;2023-03-01T16:56:11;4.30;1.00
6496;DHT22;3281;47.658;9.166;2023-03-01T16:58:39;4.50;1.00
6496;DHT22;3281;47.658;9.166;2023-03-01T17:01:10;4.50;1.00
6496;DHT22;3281;47.658;9.166;2023-03-01T17:03:38;4.50;1.00
6496;DHT22;3281;47.658;9.166;2023-03-01T17:06:07;4.50;1.00
6496;DHT22;3281;47.658;9.166;2023-03-01T17:08:34;4.60;1.00
6496;DHT22;3281;47.658;9.166;2023-03-01T17:11:05;4.50;1.00
6496;DHT22;3281;47.658;9.166;2023-03-01T17:13:33;4.60;1.00